Private Wetterstation Wechselburg
Wetterdaten: Donnerstag, 05.06.2014
Datum Zeit Temp. +2m Bodentemp. Temp.+5cm Temp. Wind Windchill X Diff Temp. Feuchte +2m Feuchte +5cm Sonnenschein Luftdruck Regen Wind Richtung Richtung Sonnenschein UV Taupunkt Windchill Windben
05.06.2014 00:00 15,7 C 24,9 C 15,5 C 15,9 C 15,9 C 0,2 C 76 % 79 % 0 % 1008,0 hPa 0,0 l/m 1,9 km/h (1 Bft) W 270 0 min 0,0 UV-I 11,5 C 15,9 C 5,3 km/h (1 Bft)
05.06.2014 00:05 15,8 C 24,9 C 15,5 C 16,0 C 16,0 C 0,2 C 75 % 79 % 0 % 1008,0 hPa 0,0 l/m 1,3 km/h (1 Bft) W 270 0 min 0,0 UV-I 11,4 C 16,0 C 2,7 km/h (1 Bft)
05.06.2014 00:10 15,8 C 24,9 C 15,6 C 16,0 C 16,0 C 0,2 C 75 % 79 % 0 % 1008,0 hPa 0,0 l/m 1,1 km/h (1 Bft) S 180 0 min 0,0 UV-I 11,4 C 16,0 C 0,0 km/h (0 Bft)
05.06.2014 00:15 15,9 C 24,9 C 15,6 C 15,9 C 15,9 C 0,0 C 75 % 79 % 0 % 1008,0 hPa 0,0 l/m 0,6 km/h (0 Bft) S-SO 157 0 min 0,0 UV-I 11,5 C 15,9 C 1,6 km/h (1 Bft)
05.06.2014 00:20 15,9 C 24,9 C 15,6 C 15,9 C 15,9 C 0,0 C 75 % 79 % 0 % 1008,0 hPa 0,0 l/m 1,0 km/h (0 Bft) W-NW 292 0 min 0,0 UV-I 11,5 C 15,9 C 4,3 km/h (1 Bft)
05.06.2014 00:25 15,9 C 24,9 C 15,6 C 15,9 C 15,9 C 0,0 C 75 % 79 % 0 % 1008,0 hPa 0,0 l/m 1,6 km/h (1 Bft) W-NW 292 0 min 0,0 UV-I 11,5 C 15,9 C 6,1 km/h (2 Bft)
05.06.2014 00:30 16,0 C 24,9 C 15,6 C 16,0 C 15,9 C 0,0 C 75 % 79 % 0 % 1008,0 hPa 0,0 l/m 2,4 km/h (1 Bft) S 180 0 min 0,0 UV-I 11,6 C 15,9 C 6,8 km/h (2 Bft)
05.06.2014 00:35 16,1 C 24,9 C 15,7 C 16,0 C 15,9 C 0,0 C 75 % 79 % 0 % 1008,0 hPa 0,0 l/m 2,6 km/h (1 Bft) W 270 0 min 0,0 UV-I 11,7 C 15,9 C 2,6 km/h (1 Bft)
05.06.2014 00:40 16,0 C 24,9 C 15,6 C 16,0 C 15,9 C 0,0 C 75 % 79 % 0 % 1008,1 hPa 0,0 l/m 2,9 km/h (1 Bft) W-SW 247 0 min 0,0 UV-I 11,6 C 15,9 C 7,9 km/h (2 Bft)
05.06.2014 00:45 16,1 C 24,9 C 15,6 C 16,0 C 15,8 C 0,0 C 75 % 79 % 0 % 1008,1 hPa 0,0 l/m 1,9 km/h (1 Bft) N 360 0 min 0,0 UV-I 11,7 C 15,8 C 2,9 km/h (1 Bft)
05.06.2014 00:50 16,1 C 24,9 C 15,6 C 16,0 C 15,8 C 0,0 C 75 % 79 % 0 % 1008,1 hPa 0,0 l/m 1,4 km/h (1 Bft) O 90 0 min 0,0 UV-I 11,7 C 15,8 C 1,8 km/h (1 Bft)
05.06.2014 00:55 16,0 C 24,9 C 15,6 C 15,9 C 15,8 C 0,0 C 75 % 79 % 0 % 1008,1 hPa 0,0 l/m 1,3 km/h (1 Bft) SW 225 0 min 0,0 UV-I 11,6 C 15,8 C 0,0 km/h (0 Bft)
05.06.2014 01:00 16,0 C 24,9 C 15,5 C 15,9 C 15,7 C 0,0 C 76 % 79 % 0 % 1008,2 hPa 0,0 l/m 1,1 km/h (1 Bft) S 180 0 min 0,0 UV-I 11,8 C 15,7 C 2,3 km/h (1 Bft)
05.06.2014 01:05 15,9 C 24,9 C 15,5 C 15,7 C 15,3 C 0,0 C 76 % 80 % 0 % 1008,2 hPa 0,0 l/m 0,8 km/h (0 Bft) S 180 0 min 0,0 UV-I 11,7 C 15,3 C 0,0 km/h (0 Bft)
05.06.2014 01:10 15,9 C 24,9 C 15,5 C 15,7 C 15,3 C 0,0 C 76 % 80 % 0 % 1008,2 hPa 0,0 l/m 0,8 km/h (0 Bft) S 180 0 min 0,0 UV-I 11,7 C 15,3 C 0,0 km/h (0 Bft)
05.06.2014 01:15 15,9 C 24,9 C 15,4 C 15,6 C 15,1 C 0,0 C 77 % 80 % 0 % 1008,2 hPa 0,0 l/m 0,6 km/h (0 Bft) W 270 0 min 0,0 UV-I 11,9 C 15,1 C 1,9 km/h (1 Bft)
05.06.2014 01:20 15,8 C 24,9 C 15,5 C 15,4 C 14,6 C 0,0 C 77 % 81 % 0 % 1008,3 hPa 0,0 l/m 0,2 km/h (0 Bft) S-SO 157 0 min 0,0 UV-I 11,8 C 14,6 C 0,0 km/h (0 Bft)
05.06.2014 01:25 15,9 C 24,9 C 15,3 C 15,4 C 14,5 C 0,0 C 78 % 80 % 0 % 1008,3 hPa 0,0 l/m 0,2 km/h (0 Bft) SO 135 0 min 0,0 UV-I 12,1 C 14,5 C 0,0 km/h (0 Bft)
05.06.2014 01:30 15,7 C 24,9 C 15,3 C 15,2 C 14,3 C 0,0 C 78 % 81 % 0 % 1008,3 hPa 0,0 l/m 0,3 km/h (0 Bft) SW 225 0 min 0,0 UV-I 11,9 C 14,3 C 3,1 km/h (1 Bft)
05.06.2014 01:35 15,6 C 24,9 C 15,2 C 15,2 C 14,5 C 0,0 C 78 % 81 % 0 % 1008,3 hPa 0,0 l/m 0,5 km/h (0 Bft) S 180 0 min 0,0 UV-I 11,8 C 14,5 C 0,0 km/h (0 Bft)
05.06.2014 01:40 15,6 C 24,9 C 15,1 C 15,2 C 14,5 C 0,0 C 79 % 82 % 0 % 1008,2 hPa 0,0 l/m 0,3 km/h (0 Bft) S 180 0 min 0,0 UV-I 12,0 C 14,5 C 0,0 km/h (0 Bft)
05.06.2014 01:45 15,5 C 24,9 C 15,1 C 15,2 C 14,6 C 0,0 C 79 % 82 % 0 % 1008,2 hPa 0,0 l/m 0,2 km/h (0 Bft) S 180 0 min 0,0 UV-I 11,9 C 14,6 C 0,0 km/h (0 Bft)
05.06.2014 01:50 15,5 C 24,9 C 15,1 C 15,2 C 14,7 C 0,0 C 80 % 82 % 0 % 1008,2 hPa 0,0 l/m 0,2 km/h (0 Bft) S-SW 202 0 min 0,0 UV-I 12,1 C 14,7 C 0,0 km/h (0 Bft)
05.06.2014 01:55 15,4 C 24,9 C 15,0 C 15,1 C 14,6 C 0,0 C 80 % 82 % 0 % 1008,2 hPa 0,0 l/m 0,2 km/h (0 Bft) S-SW 202 0 min 0,0 UV-I 12,0 C 14,6 C 0,0 km/h (0 Bft)
05.06.2014 02:00 15,5 C 24,9 C 15,1 C 15,2 C 14,5 C 0,0 C 80 % 82 % 0 % 1008,1 hPa 0,0 l/m 0,2 km/h (0 Bft) S 180 0 min 0,0 UV-I 12,1 C 14,5 C 0,0 km/h (0 Bft)
05.06.2014 02:05 15,3 C 24,9 C 15,0 C 15,0 C 14,5 C 0,0 C 80 % 82 % 0 % 1008,1 hPa 0,0 l/m 0,2 km/h (0 Bft) SW 225 0 min 0,0 UV-I 11,9 C 14,5 C 0,0 km/h (0 Bft)
05.06.2014 02:10 15,3 C 24,9 C 15,0 C 15,0 C 14,5 C 0,0 C 80 % 82 % 0 % 1008,1 hPa 0,0 l/m 0,2 km/h (0 Bft) S-SO 157 0 min 0,0 UV-I 11,9 C 14,5 C 0,0 km/h (0 Bft)
05.06.2014 02:15 15,2 C 24,9 C 14,9 C 15,0 C 14,5 C 0,0 C 81 % 83 % 0 % 1008,1 hPa 0,0 l/m 0,2 km/h (0 Bft) SO 135 0 min 0,0 UV-I 12,0 C 14,5 C 0,0 km/h (0 Bft)
05.06.2014 02:20 15,2 C 24,9 C 14,8 C 15,0 C 14,5 C 0,0 C 81 % 83 % 0 % 1008,1 hPa 0,0 l/m 0,2 km/h (0 Bft) S 180 0 min 0,0 UV-I 12,0 C 14,5 C 0,0 km/h (0 Bft)
05.06.2014 02:25 15,1 C 24,9 C 14,8 C 14,9 C 14,5 C 0,0 C 81 % 83 % 0 % 1008,1 hPa 0,0 l/m 0,2 km/h (0 Bft) SO 135 0 min 0,0 UV-I 11,9 C 14,5 C 0,0 km/h (0 Bft)
05.06.2014 02:30 15,1 C 24,9 C 14,8 C 14,9 C 14,4 C 0,0 C 82 % 83 % 0 % 1008,1 hPa 0,0 l/m 0,2 km/h (0 Bft) S-SW 202 0 min 0,0 UV-I 12,0 C 14,4 C 0,0 km/h (0 Bft)
05.06.2014 02:35 15,1 C 24,9 C 14,7 C 14,9 C 14,4 C 0,0 C 82 % 83 % 0 % 1008,1 hPa 0,0 l/m 0,2 km/h (0 Bft) S 180 0 min 0,0 UV-I 12,0 C 14,4 C 0,0 km/h (0 Bft)
05.06.2014 02:40 15,0 C 24,9 C 14,6 C 14,8 C 14,3 C 0,0 C 82 % 83 % 0 % 1008,1 hPa 0,0 l/m 0,0 km/h (0 Bft) SO 135 0 min 0,0 UV-I 12,0 C 14,3 C 0,0 km/h (0 Bft)
05.06.2014 02:45 14,9 C 24,9 C 14,7 C 14,7 C 14,3 C 0,0 C 82 % 83 % 0 % 1008,1 hPa 0,0 l/m 0,0 km/h (0 Bft) SW 225 0 min 0,0 UV-I 11,9 C 14,3 C 0,0 km/h (0 Bft)
05.06.2014 02:50 14,8 C 24,9 C 14,6 C 14,6 C 14,3 C 0,0 C 83 % 83 % 0 % 1008,1 hPa 0,0 l/m 0,2 km/h (0 Bft) S-SW 202 0 min 0,0 UV-I 11,9 C 14,3 C 0,0 km/h (0 Bft)
05.06.2014 02:55 14,8 C 24,9 C 14,5 C 14,6 C 14,3 C 0,0 C 83 % 83 % 0 % 1008,1 hPa 0,0 l/m 0,3 km/h (0 Bft) S-SO 157 0 min 0,0 UV-I 11,9 C 14,3 C 0,0 km/h (0 Bft)
05.06.2014 03:00 14,8 C 24,8 C 14,6 C 14,6 C 14,2 C 0,0 C 83 % 84 % 0 % 1008,2 hPa 0,0 l/m 0,2 km/h (0 Bft) S 180 0 min 0,0 UV-I 11,9 C 14,2 C 0,0 km/h (0 Bft)
05.06.2014 03:05 14,7 C 24,8 C 14,6 C 14,6 C 14,3 C 0,0 C 83 % 84 % 0 % 1008,2 hPa 0,0 l/m 0,2 km/h (0 Bft) O-SO 112 0 min 0,0 UV-I 11,8 C 14,3 C 0,0 km/h (0 Bft)
05.06.2014 03:10 14,6 C 24,8 C 14,5 C 14,5 C 14,3 C 0,0 C 83 % 84 % 0 % 1008,2 hPa 0,0 l/m 0,3 km/h (0 Bft) SW 225 0 min 0,0 UV-I 11,7 C 14,3 C 2,4 km/h (1 Bft)
05.06.2014 03:15 14,7 C 24,8 C 14,5 C 14,6 C 14,3 C 0,0 C 83 % 84 % 0 % 1008,2 hPa 0,0 l/m 0,6 km/h (0 Bft) S 180 0 min 0,0 UV-I 11,8 C 14,3 C 4,2 km/h (1 Bft)
05.06.2014 03:20 14,7 C 24,8 C 14,5 C 14,6 C 14,3 C 0,0 C 83 % 84 % 0 % 1008,4 hPa 0,0 l/m 0,6 km/h (0 Bft) S-SW 202 0 min 0,0 UV-I 11,8 C 14,3 C 0,0 km/h (0 Bft)
05.06.2014 03:25 14,7 C 24,8 C 14,5 C 14,6 C 14,4 C 0,0 C 83 % 84 % 0 % 1008,4 hPa 0,0 l/m 0,5 km/h (0 Bft) S 180 0 min 0,0 UV-I 11,8 C 14,4 C 0,0 km/h (0 Bft)
05.06.2014 03:30 14,6 C 24,8 C 14,5 C 14,5 C 14,3 C 0,0 C 83 % 84 % 0 % 1008,4 hPa 0,0 l/m 0,6 km/h (0 Bft) S-SO 157 0 min 0,0 UV-I 11,7 C 14,3 C 3,5 km/h (1 Bft)
05.06.2014 03:35 14,7 C 24,8 C 14,5 C 14,5 C 14,2 C 0,0 C 83 % 84 % 0 % 1008,4 hPa 0,0 l/m 0,8 km/h (0 Bft) SW 225 0 min 0,0 UV-I 11,8 C 14,2 C 2,4 km/h (1 Bft)
05.06.2014 03:40 14,6 C 24,8 C 14,5 C 14,4 C 14,1 C 0,0 C 83 % 83 % 0 % 1008,4 hPa 0,0 l/m 1,0 km/h (0 Bft) W-SW 247 0 min 0,0 UV-I 11,7 C 14,1 C 0,0 km/h (0 Bft)
05.06.2014 03:45 14,6 C 24,9 C 14,6 C 14,5 C 14,2 C 0,0 C 83 % 83 % 0 % 1008,4 hPa 0,0 l/m 1,1 km/h (1 Bft) S-SW 202 0 min 0,0 UV-I 11,7 C 14,2 C 1,6 km/h (1 Bft)
05.06.2014 03:50 14,6 C 24,9 C 14,5 C 14,5 C 14,2 C 0,0 C 83 % 83 % 0 % 1008,4 hPa 0,0 l/m 0,6 km/h (0 Bft) S-SO 157 0 min 0,0 UV-I 11,7 C 14,2 C 0,0 km/h (0 Bft)
05.06.2014 03:55 14,6 C 24,9 C 14,5 C 14,4 C 14,1 C 0,0 C 83 % 84 % 0 % 1008,4 hPa 0,0 l/m 0,5 km/h (0 Bft) S 180 0 min 0,0 UV-I 11,7 C 14,1 C 1,6 km/h (1 Bft)
05.06.2014 04:00 14,5 C 24,9 C 14,5 C 14,3 C 13,8 C 0,0 C 83 % 84 % 0 % 1008,1 hPa 0,0 l/m 0,5 km/h (0 Bft) S 180 0 min 0,0 UV-I 11,6 C 13,8 C 1,9 km/h (1 Bft)
05.06.2014 04:05 14,4 C 24,9 C 14,4 C 14,2 C 13,7 C 0,0 C 83 % 84 % 0 % 1008,1 hPa 0,0 l/m 0,3 km/h (0 Bft) SW 225 0 min 0,0 UV-I 11,5 C 13,7 C 0,0 km/h (0 Bft)
05.06.2014 04:10 14,4 C 24,9 C 14,4 C 14,2 C 13,7 C 0,0 C 83 % 84 % 0 % 1008,1 hPa 0,0 l/m 0,3 km/h (0 Bft) SW 225 0 min 0,0 UV-I 11,5 C 13,7 C 0,0 km/h (0 Bft)
05.06.2014 04:15 14,4 C 24,9 C 14,3 C 14,2 C 13,7 C 0,0 C 83 % 84 % 0 % 1008,1 hPa 0,0 l/m 0,3 km/h (0 Bft) S 180 0 min 0,0 UV-I 11,5 C 13,7 C 2,4 km/h (1 Bft)
05.06.2014 04:20 14,4 C 24,9 C 14,3 C 14,2 C 13,9 C 0,0 C 83 % 84 % 0 % 1008,1 hPa 0,0 l/m 0,8 km/h (0 Bft) S 180 0 min 0,0 UV-I 11,5 C 13,9 C 2,1 km/h (1 Bft)
05.06.2014 04:25 14,4 C 24,9 C 14,3 C 14,3 C 14,0 C 0,0 C 83 % 84 % 0 % 1008,1 hPa 0,0 l/m 0,8 km/h (0 Bft) S 180 0 min 0,0 UV-I 11,5 C 14,0 C 0,0 km/h (0 Bft)
05.06.2014 04:30 14,3 C 24,8 C 14,3 C 14,2 C 14,1 C 0,0 C 83 % 84 % 0 % 1008,1 hPa 0,0 l/m 0,0 km/h (0 Bft) S-SW 202 0 min 0,0 UV-I 11,5 C 14,1 C 0,0 km/h (0 Bft)
05.06.2014 04:35 14,3 C 24,8 C 14,4 C 14,3 C 14,3 C 0,0 C 83 % 84 % 0 % 1008,4 hPa 0,0 l/m 0,6 km/h (0 Bft) SW 225 0 min 0,0 UV-I 11,5 C 14,3 C 2,1 km/h (1 Bft)
05.06.2014 04:40 14,3 C 24,8 C 14,4 C 14,3 C 14,3 C 0,0 C 83 % 84 % 0 % 1008,4 hPa 0,0 l/m 0,6 km/h (0 Bft) SW 225 0 min 0,0 UV-I 11,5 C 14,3 C 2,1 km/h (1 Bft)
05.06.2014 04:45 14,3 C 24,8 C 14,5 C 14,3 C 14,3 C 0,0 C 83 % 84 % 0 % 1008,4 hPa 0,0 l/m 1,0 km/h (0 Bft) S 180 0 min 0,0 UV-I 11,5 C 14,3 C 0,0 km/h (0 Bft)
05.06.2014 04:50 14,3 C 24,9 C 14,5 C 14,3 C 14,2 C 0,0 C 84 % 84 % 0 % 1008,4 hPa 0,0 l/m 1,6 km/h (1 Bft) S 180 0 min 0,0 UV-I 11,6 C 14,2 C 3,7 km/h (1 Bft)
05.06.2014 04:55 14,3 C 24,8 C 14,4 C 14,2 C 13,9 C 0,0 C 84 % 84 % 0 % 1008,4 hPa 0,0 l/m 1,3 km/h (1 Bft) NO 45 0 min 0,0 UV-I 11,6 C 13,9 C 0,0 km/h (0 Bft)
05.06.2014 05:00 14,3 C 24,8 C 14,5 C 14,2 C 14,0 C 0,0 C 84 % 84 % 0 % 1008,4 hPa 0,0 l/m 1,1 km/h (1 Bft) W-SW 247 0 min 0,0 UV-I 11,6 C 14,0 C 1,8 km/h (1 Bft)
05.06.2014 05:05 14,2 C 24,8 C 14,3 C 14,2 C 14,2 C 0,0 C 84 % 84 % 0 % 1008,4 hPa 0,0 l/m 1,3 km/h (1 Bft) S-SO 157 0 min 0,0 UV-I 11,5 C 14,2 C 2,3 km/h (1 Bft)
05.06.2014 05:10 14,3 C 24,8 C 14,4 C 14,3 C 14,3 C 0,0 C 84 % 84 % 0 % 1008,4 hPa 0,0 l/m 1,0 km/h (0 Bft) SO 135 0 min 0,0 UV-I 11,6 C 14,3 C 0,0 km/h (0 Bft)
05.06.2014 05:15 14,3 C 24,8 C 14,4 C 14,4 C 14,4 C 0,1 C 84 % 84 % 3 % 1008,6 hPa 0,0 l/m 0,6 km/h (0 Bft) O 90 0 min 0,0 UV-I 11,6 C 14,4 C 1,8 km/h (1 Bft)
05.06.2014 05:20 14,3 C 24,8 C 14,4 C 14,4 C 14,4 C 0,1 C 84 % 84 % 3 % 1008,6 hPa 0,0 l/m 0,6 km/h (0 Bft) O 90 0 min 0,0 UV-I 11,6 C 14,4 C 1,8 km/h (1 Bft)
05.06.2014 05:25 14,4 C 24,8 C 14,4 C 14,5 C 14,5 C 0,1 C 83 % 84 % 3 % 1008,6 hPa 0,0 l/m 0,6 km/h (0 Bft) W 270 0 min 0,0 UV-I 11,5 C 14,5 C 0,0 km/h (0 Bft)
05.06.2014 05:30 14,4 C 24,8 C 14,4 C 14,5 C 14,5 C 0,1 C 83 % 84 % 3 % 1008,6 hPa 0,0 l/m 0,8 km/h (0 Bft) S 180 0 min 0,0 UV-I 11,5 C 14,5 C 4,3 km/h (1 Bft)
05.06.2014 05:35 14,5 C 24,8 C 14,4 C 14,6 C 14,6 C 0,1 C 83 % 84 % 3 % 1008,8 hPa 0,0 l/m 1,1 km/h (1 Bft) S-SO 157 0 min 0,0 UV-I 11,6 C 14,6 C 0,0 km/h (0 Bft)
05.06.2014 05:40 14,5 C 24,8 C 14,4 C 14,6 C 14,6 C 0,1 C 83 % 84 % 3 % 1008,8 hPa 0,0 l/m 1,1 km/h (1 Bft) S-SO 157 0 min 0,0 UV-I 11,6 C 14,6 C 0,0 km/h (0 Bft)
05.06.2014 05:45 14,5 C 24,8 C 14,4 C 14,7 C 14,7 C 0,2 C 83 % 84 % 5 % 1008,8 hPa 0,0 l/m 0,3 km/h (0 Bft) S-SO 157 0 min 0,0 UV-I 11,6 C 14,7 C 1,9 km/h (1 Bft)
05.06.2014 05:50 14,5 C 24,8 C 14,4 C 14,7 C 14,7 C 0,2 C 83 % 84 % 5 % 1008,8 hPa 0,0 l/m 0,3 km/h (0 Bft) W 270 0 min 0,0 UV-I 11,6 C 14,7 C 1,6 km/h (1 Bft)
05.06.2014 05:55 14,7 C 24,8 C 14,5 C 14,9 C 14,9 C 0,2 C 83 % 84 % 5 % 1008,6 hPa 0,0 l/m 0,3 km/h (0 Bft) S 180 0 min 0,0 UV-I 11,8 C 14,9 C 1,9 km/h (1 Bft)
05.06.2014 06:00 14,7 C 24,8 C 14,6 C 14,9 C 14,9 C 0,2 C 83 % 83 % 5 % 1008,6 hPa 0,0 l/m 0,2 km/h (0 Bft) SO 135 0 min 0,0 UV-I 11,8 C 14,9 C 0,0 km/h (0 Bft)
05.06.2014 06:05 14,7 C 24,7 C 14,7 C 15,0 C 15,0 C 0,3 C 83 % 83 % 8 % 1008,6 hPa 0,0 l/m 0,2 km/h (0 Bft) SW 225 0 min 0,0 UV-I 11,8 C 15,0 C 0,0 km/h (0 Bft)
05.06.2014 06:10 14,8 C 24,7 C 14,7 C 15,2 C 15,2 C 0,4 C 83 % 83 % 11 % 1008,6 hPa 0,0 l/m 0,5 km/h (0 Bft) S 180 0 min 0,0 UV-I 11,9 C 15,2 C 6,3 km/h (2 Bft)
05.06.2014 06:15 14,9 C 24,7 C 14,7 C 15,3 C 15,3 C 0,4 C 83 % 83 % 11 % 1008,9 hPa 0,0 l/m 1,1 km/h (1 Bft) S 180 0 min 0,0 UV-I 12,0 C 15,3 C 2,1 km/h (1 Bft)
05.06.2014 06:20 14,8 C 24,7 C 14,8 C 15,4 C 15,4 C 0,6 C 83 % 84 % 16 % 1008,9 hPa 0,0 l/m 1,3 km/h (1 Bft) S-SO 157 0 min 0,0 UV-I 11,9 C 15,4 C 0,0 km/h (0 Bft)
05.06.2014 06:25 14,9 C 24,7 C 14,9 C 15,6 C 15,6 C 0,7 C 82 % 83 % 18 % 1008,9 hPa 0,0 l/m 1,3 km/h (1 Bft) S-SO 157 0 min 0,0 UV-I 11,9 C 15,6 C 4,0 km/h (1 Bft)
05.06.2014 06:30 15,0 C 24,7 C 14,9 C 15,8 C 15,8 C 0,8 C 82 % 83 % 21 % 1008,9 hPa 0,0 l/m 1,6 km/h (1 Bft) W-SW 247 0 min 0,0 UV-I 12,0 C 15,8 C 4,2 km/h (1 Bft)
05.06.2014 06:35 15,1 C 24,6 C 15,0 C 15,9 C 15,9 C 0,8 C 82 % 83 % 21 % 1009,0 hPa 0,0 l/m 1,8 km/h (1 Bft) W-SW 247 0 min 0,0 UV-I 12,0 C 15,9 C 3,2 km/h (1 Bft)
05.06.2014 06:40 15,1 C 24,6 C 15,1 C 15,9 C 15,9 C 0,8 C 82 % 83 % 21 % 1009,0 hPa 0,0 l/m 1,9 km/h (1 Bft) S-SO 157 0 min 0,0 UV-I 12,0 C 15,9 C 9,2 km/h (2 Bft)
05.06.2014 06:45 15,2 C 24,6 C 15,2 C 16,1 C 16,1 C 0,9 C 82 % 82 % 24 % 1009,0 hPa 0,0 l/m 2,4 km/h (1 Bft) SO 135 0 min 0,0 UV-I 12,1 C 16,1 C 8,0 km/h (2 Bft)
05.06.2014 06:50 15,3 C 24,6 C 15,3 C 16,1 C 16,1 C 0,8 C 81 % 82 % 21 % 1009,0 hPa 0,0 l/m 2,6 km/h (1 Bft) S-SO 157 0 min 0,0 UV-I 12,1 C 16,1 C 2,3 km/h (1 Bft)
05.06.2014 06:55 15,2 C 24,6 C 15,3 C 16,1 C 16,1 C 0,9 C 81 % 82 % 24 % 1009,1 hPa 0,0 l/m 2,7 km/h (1 Bft) SO 135 0 min 0,0 UV-I 12,0 C 16,1 C 4,7 km/h (1 Bft)
05.06.2014 07:00 15,3 C 24,6 C 15,1 C 15,9 C 15,9 C 0,6 C 81 % 82 % 16 % 1009,1 hPa 0,0 l/m 2,7 km/h (1 Bft) S 180 0 min 0,0 UV-I 12,1 C 15,9 C 2,6 km/h (1 Bft)
05.06.2014 07:05 15,3 C 24,6 C 15,1 C 15,6 C 15,6 C 0,3 C 80 % 81 % 8 % 1009,1 hPa 0,0 l/m 3,2 km/h (1 Bft) W-SW 247 0 min 0,0 UV-I 11,9 C 15,6 C 2,9 km/h (1 Bft)
05.06.2014 07:10 15,2 C 24,7 C 15,0 C 15,5 C 15,5 C 0,3 C 80 % 81 % 8 % 1009,1 hPa 0,0 l/m 2,9 km/h (1 Bft) N-NO 22 0 min 0,0 UV-I 11,8 C 15,5 C 11,6 km/h (2 Bft)
05.06.2014 07:15 15,2 C 24,7 C 15,0 C 15,4 C 15,4 C 0,2 C 80 % 81 % 5 % 1009,5 hPa 0,0 l/m 2,7 km/h (1 Bft) W-SW 247 0 min 0,0 UV-I 11,8 C 15,4 C 3,2 km/h (1 Bft)
05.06.2014 07:20 15,2 C 24,7 C 15,0 C 15,5 C 15,5 C 0,3 C 80 % 81 % 8 % 1009,5 hPa 0,0 l/m 2,9 km/h (1 Bft) O-SO 112 0 min 0,0 UV-I 11,8 C 15,5 C 7,7 km/h (2 Bft)
05.06.2014 07:25 15,2 C 24,7 C 15,1 C 15,8 C 15,8 C 0,6 C 80 % 81 % 16 % 1009,5 hPa 0,0 l/m 3,1 km/h (1 Bft) S 180 0 min 0,0 UV-I 11,8 C 15,8 C 5,6 km/h (1 Bft)
05.06.2014 07:30 15,3 C 24,6 C 15,3 C 16,0 C 16,0 C 0,7 C 80 % 81 % 18 % 1009,5 hPa 0,0 l/m 2,7 km/h (1 Bft) W-SW 247 0 min 0,0 UV-I 11,9 C 16,0 C 3,1 km/h (1 Bft)
05.06.2014 07:35 15,3 C 24,6 C 15,3 C 16,3 C 16,3 C 1,0 C 80 % 80 % 26 % 1009,9 hPa 0,0 l/m 1,8 km/h (1 Bft) SW 225 0 min 0,0 UV-I 11,9 C 16,3 C 1,9 km/h (1 Bft)
05.06.2014 07:40 15,3 C 24,6 C 15,2 C 16,3 C 16,3 C 1,0 C 79 % 80 % 26 % 1009,9 hPa 0,0 l/m 1,9 km/h (1 Bft) W-NW 292 0 min 0,0 UV-I 11,7 C 16,3 C 4,8 km/h (1 Bft)
05.06.2014 07:45 15,2 C 24,6 C 15,0 C 15,7 C 15,7 C 0,5 C 79 % 80 % 13 % 1009,9 hPa 0,0 l/m 3,1 km/h (1 Bft) N-NW 337 0 min 0,0 UV-I 11,6 C 15,7 C 5,3 km/h (1 Bft)
05.06.2014 07:50 15,2 C 24,6 C 14,9 C 15,4 C 15,4 C 0,2 C 78 % 80 % 5 % 1009,9 hPa 0,0 l/m 3,1 km/h (1 Bft) S-SO 157 0 min 0,0 UV-I 11,4 C 15,4 C 1,9 km/h (1 Bft)
05.06.2014 07:55 15,3 C 24,6 C 15,1 C 17,7 C 17,7 C 2,4 C 80 % 80 % 63 % 1009,9 hPa 0,0 l/m 2,7 km/h (1 Bft) W-SW 247 0 min 0,0 UV-I 11,9 C 17,7 C 2,7 km/h (1 Bft)
05.06.2014 08:00 15,6 C 24,5 C 15,1 C 20,1 C 20,1 C 4,5 C 79 % 80 % 100 % 1009,9 hPa 0,0 l/m 2,6 km/h (1 Bft) S-SO 157 5 min 0,0 UV-I 12,0 C 20,1 C 3,9 km/h (1 Bft)
05.06.2014 08:05 16,3 C 24,5 C 15,3 C 22,6 C 22,6 C 6,3 C 78 % 80 % 100 % 1009,9 hPa 0,0 l/m 2,3 km/h (1 Bft) N-NW 337 5 min 0,0 UV-I 12,5 C 22,6 C 3,5 km/h (1 Bft)
05.06.2014 08:10 16,3 C 24,5 C 15,2 C 22,7 C 22,7 C 6,4 C 76 % 80 % 100 % 1009,9 hPa 0,0 l/m 2,4 km/h (1 Bft) O-SO 112 5 min 0,0 UV-I 12,1 C 22,7 C 3,4 km/h (1 Bft)
05.06.2014 08:15 16,4 C 24,5 C 15,3 C 23,2 C 23,2 C 6,8 C 76 % 80 % 100 % 1010,4 hPa 0,0 l/m 2,7 km/h (1 Bft) S 180 5 min 0,0 UV-I 12,2 C 23,2 C 2,9 km/h (1 Bft)
05.06.2014 08:20 16,5 C 24,5 C 15,3 C 23,2 C 23,2 C 6,7 C 74 % 79 % 100 % 1010,4 hPa 0,0 l/m 2,7 km/h (1 Bft) W-SW 247 5 min 0,0 UV-I 11,8 C 23,2 C 6,1 km/h (2 Bft)
05.06.2014 08:26 16,4 C 24,5 C 15,5 C 23,0 C 23,0 C 6,6 C 73 % 78 % 100 % 1010,4 hPa 0,0 l/m 4,0 km/h (1 Bft) S 180 6 min 0,0 UV-I 11,5 C 23,0 C 6,0 km/h (2 Bft)
05.06.2014 08:30 16,4 C 24,5 C 15,5 C 23,0 C 23,0 C 6,6 C 73 % 78 % 100 % 1010,4 hPa 0,0 l/m 4,0 km/h (1 Bft) S 180 4 min 0,0 UV-I 11,5 C 23,0 C 6,0 km/h (2 Bft)
05.06.2014 08:35 16,4 C 24,5 C 15,5 C 22,3 C 22,3 C 5,9 C 73 % 78 % 100 % 1010,4 hPa 0,0 l/m 4,0 km/h (1 Bft) S 180 5 min 0,0 UV-I 11,5 C 22,3 C 2,3 km/h (1 Bft)
05.06.2014 08:40 16,5 C 24,5 C 15,7 C 21,3 C 21,3 C 4,8 C 73 % 77 % 100 % 1010,6 hPa 0,0 l/m 4,2 km/h (1 Bft) S 180 5 min 0,0 UV-I 11,6 C 21,3 C 15,4 km/h (3 Bft)
05.06.2014 08:45 16,3 C 24,5 C 15,7 C 19,8 C 19,8 C 3,5 C 72 % 76 % 92 % 1010,6 hPa 0,0 l/m 6,3 km/h (2 Bft) W-NW 292 5 min 0,0 UV-I 11,2 C 19,8 C 8,7 km/h (2 Bft)
05.06.2014 08:50 16,0 C 24,5 C 15,6 C 18,7 C 18,7 C 2,7 C 72 % 76 % 71 % 1010,6 hPa 0,0 l/m 8,2 km/h (2 Bft) S-SO 157 0 min 0,0 UV-I 11,0 C 18,7 C 19,3 km/h (3 Bft)
05.06.2014 08:55 16,0 C 24,5 C 15,6 C 18,5 C 18,5 C 2,5 C 73 % 76 % 66 % 1010,6 hPa 0,0 l/m 6,8 km/h (2 Bft) S-SO 157 0 min 0,0 UV-I 11,2 C 18,5 C 8,9 km/h (2 Bft)
05.06.2014 09:00 16,1 C 24,5 C 16,1 C 20,3 C 20,3 C 4,2 C 73 % 77 % 100 % 1010,7 hPa 0,0 l/m 5,3 km/h (1 Bft) S-SW 202 5 min 0,0 UV-I 11,3 C 20,3 C 13,7 km/h (3 Bft)
05.06.2014 09:05 16,4 C 24,5 C 16,1 C 21,1 C 21,1 C 4,7 C 73 % 76 % 100 % 1010,7 hPa 0,0 l/m 4,8 km/h (1 Bft) SO 135 5 min 0,0 UV-I 11,5 C 21,1 C 3,5 km/h (1 Bft)
05.06.2014 09:10 16,5 C 24,5 C 16,1 C 20,5 C 20,5 C 4,0 C 71 % 75 % 100 % 1010,7 hPa 0,0 l/m 4,0 km/h (1 Bft) O-SO 112 5 min 0,0 UV-I 11,2 C 20,5 C 8,7 km/h (2 Bft)
05.06.2014 09:15 16,5 C 24,5 C 16,0 C 19,2 C 19,2 C 2,7 C 71 % 75 % 71 % 1010,7 hPa 0,0 l/m 4,8 km/h (1 Bft) SW 225 0 min 0,0 UV-I 11,2 C 19,2 C 12,2 km/h (2 Bft)
05.06.2014 09:20 16,3 C 24,5 C 15,8 C 18,1 C 18,1 C 1,8 C 71 % 75 % 47 % 1011,0 hPa 0,0 l/m 5,5 km/h (1 Bft) O-SO 112 0 min 0,0 UV-I 11,0 C 18,1 C 3,5 km/h (1 Bft)
05.06.2014 09:25 16,1 C 24,5 C 15,8 C 17,8 C 17,8 C 1,7 C 71 % 75 % 45 % 1011,0 hPa 0,0 l/m 6,0 km/h (2 Bft) S 180 0 min 0,0 UV-I 10,8 C 17,8 C 12,1 km/h (2 Bft)
05.06.2014 09:30 16,0 C 24,5 C 15,8 C 17,3 C 17,3 C 1,3 C 72 % 76 % 34 % 1011,0 hPa 0,0 l/m 5,6 km/h (1 Bft) S 180 0 min 0,0 UV-I 11,0 C 17,3 C 11,6 km/h (2 Bft)
05.06.2014 09:35 15,9 C 24,5 C 15,8 C 17,2 C 17,2 C 1,3 C 72 % 76 % 34 % 1011,0 hPa 0,0 l/m 6,3 km/h (2 Bft) S-SW 202 0 min 0,0 UV-I 10,9 C 17,2 C 12,1 km/h (2 Bft)
05.06.2014 09:40 15,7 C 24,5 C 15,7 C 17,0 C 17,0 C 1,3 C 71 % 74 % 34 % 1011,8 hPa 0,0 l/m 8,2 km/h (2 Bft) S-SW 202 0 min 0,0 UV-I 10,5 C 17,0 C 10,3 km/h (2 Bft)
05.06.2014 09:45 15,6 C 24,5 C 15,8 C 17,1 C 17,1 C 1,5 C 70 % 74 % 39 % 1011,8 hPa 0,0 l/m 8,7 km/h (2 Bft) W-SW 247 0 min 0,0 UV-I 10,1 C 17,1 C 10,5 km/h (2 Bft)
05.06.2014 09:50 15,8 C 24,5 C 16,0 C 17,6 C 17,6 C 1,8 C 71 % 74 % 47 % 1011,8 hPa 0,0 l/m 7,4 km/h (2 Bft) W-SW 247 0 min 0,0 UV-I 10,6 C 17,6 C 14,6 km/h (3 Bft)
05.06.2014 09:55 15,9 C 24,5 C 16,1 C 17,9 C 17,9 C 2,0 C 71 % 74 % 53 % 1011,8 hPa 0,0 l/m 6,6 km/h (2 Bft) S 180 0 min 0,0 UV-I 10,6 C 17,9 C 5,5 km/h (1 Bft)
05.06.2014 10:00 15,8 C 24,5 C 16,0 C 17,5 C 17,5 C 1,7 C 71 % 74 % 45 % 1011,9 hPa 0,0 l/m 6,9 km/h (2 Bft) S 180 0 min 0,0 UV-I 10,6 C 17,5 C 22,4 km/h (4 Bft)
05.06.2014 10:05 15,7 C 24,5 C 15,9 C 17,3 C 17,3 C 1,6 C 72 % 74 % 42 % 1011,9 hPa 0,0 l/m 6,8 km/h (2 Bft) SW 225 0 min 0,0 UV-I 10,7 C 17,3 C 6,6 km/h (2 Bft)
05.06.2014 10:10 15,7 C 24,5 C 15,9 C 17,3 C 17,3 C 1,6 C 72 % 74 % 42 % 1011,9 hPa 0,0 l/m 6,1 km/h (2 Bft) SW 225 0 min 0,0 UV-I 10,7 C 17,3 C 11,9 km/h (2 Bft)
05.06.2014 10:15 15,7 C 24,5 C 16,0 C 17,5 C 17,5 C 1,8 C 72 % 74 % 47 % 1011,9 hPa 0,0 l/m 5,5 km/h (1 Bft) W-SW 247 0 min 0,0 UV-I 10,7 C 17,5 C 3,7 km/h (1 Bft)
05.06.2014 10:20 15,9 C 24,5 C 16,0 C 17,9 C 17,9 C 2,0 C 72 % 75 % 53 % 1011,9 hPa 0,0 l/m 5,5 km/h (1 Bft) S 180 0 min 0,0 UV-I 10,9 C 17,9 C 10,1 km/h (2 Bft)
05.06.2014 10:25 15,8 C 24,5 C 16,1 C 17,8 C 17,8 C 2,0 C 71 % 74 % 53 % 1011,9 hPa 0,0 l/m 4,8 km/h (1 Bft) SO 135 0 min 0,0 UV-I 10,6 C 17,8 C 8,2 km/h (2 Bft)
05.06.2014 10:30 15,9 C 24,5 C 16,0 C 18,6 C 18,6 C 2,7 C 71 % 74 % 71 % 1011,9 hPa 0,0 l/m 5,5 km/h (1 Bft) W-SW 247 0 min 0,0 UV-I 10,6 C 18,6 C 14,6 km/h (3 Bft)
05.06.2014 10:35 15,8 C 24,5 C 16,0 C 18,1 C 18,1 C 2,3 C 71 % 74 % 61 % 1011,9 hPa 0,0 l/m 6,6 km/h (2 Bft) SW 225 0 min 0,0 UV-I 10,6 C 18,1 C 12,2 km/h (2 Bft)
05.06.2014 10:40 15,8 C 24,4 C 16,0 C 17,9 C 17,9 C 2,1 C 71 % 74 % 55 % 1012,4 hPa 0,0 l/m 6,4 km/h (2 Bft) NW 315 0 min 0,0 UV-I 10,6 C 17,9 C 2,4 km/h (1 Bft)
05.06.2014 10:45 16,0 C 24,4 C 16,1 C 18,5 C 18,5 C 2,5 C 69 % 73 % 66 % 1012,4 hPa 0,0 l/m 6,1 km/h (2 Bft) W 270 0 min 0,0 UV-I 10,3 C 18,5 C 9,7 km/h (2 Bft)
05.06.2014 10:50 15,9 C 24,4 C 16,0 C 17,9 C 17,9 C 2,0 C 69 % 73 % 53 % 1012,4 hPa 0,0 l/m 5,0 km/h (1 Bft) S-SO 157 0 min 0,0 UV-I 10,2 C 17,9 C 1,8 km/h (1 Bft)
05.06.2014 10:55 16,0 C 24,4 C 16,3 C 18,5 C 18,5 C 2,5 C 69 % 72 % 66 % 1012,4 hPa 0,0 l/m 4,0 km/h (1 Bft) O-NO 67 0 min 0,0 UV-I 10,3 C 18,5 C 2,7 km/h (1 Bft)
05.06.2014 11:00 16,3 C 24,4 C 16,4 C 20,1 C 20,1 C 3,8 C 68 % 71 % 100 % 1012,6 hPa 0,0 l/m 3,2 km/h (1 Bft) S-SO 157 5 min 0,0 UV-I 10,4 C 20,1 C 5,6 km/h (1 Bft)
05.06.2014 11:05 16,5 C 24,5 C 16,5 C 21,4 C 21,4 C 4,9 C 68 % 71 % 100 % 1012,6 hPa 0,0 l/m 3,7 km/h (1 Bft) W-NW 292 5 min 0,0 UV-I 10,6 C 21,4 C 3,5 km/h (1 Bft)
05.06.2014 11:10 16,6 C 24,5 C 16,8 C 21,8 C 21,8 C 5,2 C 66 % 69 % 100 % 1012,6 hPa 0,0 l/m 4,8 km/h (1 Bft) S-SO 157 5 min 0,0 UV-I 10,2 C 21,8 C 2,4 km/h (1 Bft)
05.06.2014 11:15 16,7 C 24,5 C 16,9 C 22,1 C 22,1 C 5,4 C 65 % 69 % 100 % 1012,6 hPa 0,0 l/m 5,0 km/h (1 Bft) S-SO 157 5 min 0,0 UV-I 10,1 C 22,1 C 4,0 km/h (1 Bft)
05.06.2014 11:20 16,8 C 24,5 C 16,9 C 22,0 C 22,0 C 5,2 C 63 % 68 % 100 % 1012,6 hPa 0,0 l/m 5,0 km/h (1 Bft) SW 225 5 min 0,0 UV-I 9,7 C 22,0 C 22,7 km/h (4 Bft)
05.06.2014 11:25 16,8 C 24,4 C 16,9 C 21,2 C 21,2 C 4,4 C 63 % 68 % 100 % 1012,6 hPa 0,0 l/m 5,6 km/h (1 Bft) SW 225 5 min 0,0 UV-I 9,7 C 21,2 C 12,2 km/h (2 Bft)
05.06.2014 11:30 16,8 C 24,4 C 16,9 C 20,9 C 20,9 C 4,1 C 62 % 67 % 100 % 1012,6 hPa 0,0 l/m 7,6 km/h (2 Bft) S 180 5 min 0,0 UV-I 9,5 C 20,9 C 11,7 km/h (2 Bft)
05.06.2014 11:35 16,7 C 24,4 C 16,9 C 20,3 C 20,3 C 3,6 C 62 % 66 % 95 % 1012,6 hPa 0,0 l/m 8,2 km/h (2 Bft) W-SW 247 5 min 0,0 UV-I 9,4 C 20,3 C 8,5 km/h (2 Bft)
05.06.2014 11:40 16,8 C 24,4 C 16,9 C 20,3 C 20,3 C 3,5 C 63 % 65 % 92 % 1012,8 hPa 0,0 l/m 6,3 km/h (2 Bft) S 180 5 min 0,0 UV-I 9,7 C 20,3 C 3,4 km/h (1 Bft)
05.06.2014 11:45 16,9 C 24,4 C 16,9 C 20,0 C 20,0 C 3,1 C 61 % 66 % 82 % 1012,8 hPa 0,0 l/m 5,1 km/h (1 Bft) W-SW 247 0 min 0,0 UV-I 9,3 C 20,0 C 17,4 km/h (3 Bft)
05.06.2014 11:50 16,5 C 24,4 C 16,7 C 18,8 C 18,8 C 2,3 C 61 % 65 % 61 % 1012,8 hPa 0,0 l/m 6,6 km/h (2 Bft) W-SW 247 0 min 0,0 UV-I 9,0 C 18,8 C 8,4 km/h (2 Bft)
05.06.2014 11:55 16,4 C 24,4 C 16,5 C 18,2 C 18,2 C 1,8 C 61 % 65 % 47 % 1012,8 hPa 0,0 l/m 6,8 km/h (2 Bft) W-NW 292 0 min 0,0 UV-I 8,9 C 18,2 C 8,9 km/h (2 Bft)
05.06.2014 12:00 16,3 C 24,4 C 16,4 C 17,9 C 17,9 C 1,6 C 62 % 67 % 42 % 1013,2 hPa 0,0 l/m 5,3 km/h (1 Bft) S-SW 202 0 min 0,0 UV-I 9,0 C 17,9 C 6,4 km/h (2 Bft)
05.06.2014 12:05 16,3 C 24,4 C 16,5 C 18,0 C 18,0 C 1,7 C 62 % 67 % 45 % 1013,2 hPa 0,0 l/m 5,0 km/h (1 Bft) W 270 0 min 0,0 UV-I 9,0 C 18,0 C 11,1 km/h (2 Bft)
05.06.2014 12:10 16,4 C 24,4 C 16,6 C 18,4 C 18,4 C 2,0 C 62 % 67 % 53 % 1013,2 hPa 0,0 l/m 4,8 km/h (1 Bft) W-NW 292 0 min 0,0 UV-I 9,1 C 18,4 C 7,9 km/h (2 Bft)
05.06.2014 12:15 16,5 C 24,4 C 16,8 C 19,1 C 19,1 C 2,6 C 63 % 68 % 68 % 1013,2 hPa 0,0 l/m 4,5 km/h (1 Bft) O-NO 67 0 min 0,0 UV-I 9,4 C 19,1 C 1,6 km/h (1 Bft)
05.06.2014 12:20 17,0 C 24,4 C 17,2 C 21,1 C 21,1 C 4,1 C 63 % 68 % 100 % 1013,5 hPa 0,0 l/m 3,4 km/h (1 Bft) W-SW 247 5 min 0,0 UV-I 9,9 C 21,1 C 6,0 km/h (2 Bft)
05.06.2014 12:25 17,3 C 24,4 C 17,5 C 21,6 C 21,6 C 4,3 C 59 % 65 % 100 % 1013,5 hPa 0,0 l/m 4,2 km/h (1 Bft) S-SO 157 5 min 0,0 UV-I 9,2 C 21,6 C 4,7 km/h (1 Bft)
05.06.2014 12:30 17,5 C 24,4 C 17,4 C 21,7 C 21,7 C 4,2 C 58 % 64 % 100 % 1013,5 hPa 0,0 l/m 6,0 km/h (2 Bft) N-NO 22 5 min 0,0 UV-I 9,1 C 21,7 C 3,9 km/h (1 Bft)
05.06.2014 12:35 17,5 C 24,4 C 17,5 C 21,7 C 21,7 C 4,2 C 58 % 65 % 100 % 1013,5 hPa 0,0 l/m 5,1 km/h (1 Bft) SW 225 5 min 0,0 UV-I 9,1 C 21,7 C 9,2 km/h (2 Bft)
05.06.2014 12:40 17,5 C 24,4 C 17,5 C 21,3 C 21,3 C 3,8 C 59 % 64 % 100 % 1013,4 hPa 0,0 l/m 4,0 km/h (1 Bft) O 90 5 min 0,0 UV-I 9,4 C 21,3 C 2,3 km/h (1 Bft)
05.06.2014 12:45 17,7 C 24,4 C 17,5 C 22,0 C 22,0 C 4,3 C 59 % 63 % 100 % 1013,4 hPa 0,0 l/m 3,2 km/h (1 Bft) S-SO 157 5 min 0,0 UV-I 9,6 C 22,0 C 2,1 km/h (1 Bft)
05.06.2014 12:50 18,3 C 24,5 C 17,9 C 22,9 C 22,9 C 4,6 C 58 % 63 % 100 % 1013,4 hPa 0,0 l/m 3,7 km/h (1 Bft) S 180 5 min 0,0 UV-I 9,9 C 22,9 C 6,6 km/h (2 Bft)
05.06.2014 12:55 18,1 C 24,5 C 17,8 C 22,7 C 22,7 C 4,6 C 57 % 63 % 100 % 1013,4 hPa 0,0 l/m 5,0 km/h (1 Bft) NO 45 5 min 0,0 UV-I 9,4 C 22,7 C 3,2 km/h (1 Bft)
05.06.2014 13:00 18,1 C 24,5 C 17,9 C 22,0 C 22,0 C 3,9 C 57 % 63 % 100 % 1013,4 hPa 0,0 l/m 4,5 km/h (1 Bft) S 180 5 min 0,0 UV-I 9,4 C 22,0 C 1,9 km/h (1 Bft)
05.06.2014 13:05 18,1 C 24,5 C 17,9 C 22,0 C 22,0 C 3,9 C 56 % 62 % 100 % 1013,4 hPa 0,0 l/m 4,0 km/h (1 Bft) W-SW 247 5 min 0,0 UV-I 9,2 C 22,0 C 5,6 km/h (1 Bft)
05.06.2014 13:10 18,3 C 24,4 C 18,1 C 22,4 C 22,4 C 4,1 C 53 % 62 % 100 % 1013,4 hPa 0,0 l/m 5,0 km/h (1 Bft) S 180 5 min 0,0 UV-I 8,6 C 22,4 C 7,2 km/h (2 Bft)
05.06.2014 13:15 18,2 C 24,5 C 17,9 C 21,8 C 21,8 C 3,6 C 53 % 60 % 95 % 1013,4 hPa 0,0 l/m 6,1 km/h (2 Bft) SW 225 5 min 0,0 UV-I 8,5 C 21,8 C 5,3 km/h (1 Bft)
05.06.2014 13:20 18,1 C 24,4 C 17,9 C 21,7 C 21,7 C 3,6 C 52 % 58 % 95 % 1013,6 hPa 0,0 l/m 6,1 km/h (2 Bft) S 180 5 min 0,0 UV-I 8,1 C 21,7 C 16,1 km/h (3 Bft)
05.06.2014 13:25 18,3 C 24,5 C 18,0 C 21,7 C 21,7 C 3,4 C 52 % 59 % 89 % 1013,6 hPa 0,0 l/m 5,5 km/h (1 Bft) NO 45 5 min 0,0 UV-I 8,3 C 21,7 C 3,1 km/h (1 Bft)
05.06.2014 13:30 18,3 C 24,4 C 18,0 C 21,8 C 21,8 C 3,5 C 49 % 57 % 92 % 1013,6 hPa 0,0 l/m 6,0 km/h (2 Bft) S-SW 202 5 min 0,0 UV-I 7,4 C 21,8 C 6,1 km/h (2 Bft)
05.06.2014 13:35 18,3 C 24,3 C 18,0 C 21,5 C 21,5 C 3,2 C 47 % 57 % 84 % 1013,6 hPa 0,0 l/m 5,8 km/h (2 Bft) W-NW 292 0 min 0,0 UV-I 6,8 C 21,5 C 11,7 km/h (2 Bft)
05.06.2014 13:40 18,1 C 24,4 C 18,0 C 21,2 C 21,2 C 3,1 C 47 % 54 % 82 % 1013,7 hPa 0,0 l/m 6,0 km/h (2 Bft) S-SO 157 0 min 0,0 UV-I 6,6 C 21,2 C 6,9 km/h (2 Bft)
05.06.2014 13:45 18,3 C 24,5 C 18,0 C 21,4 C 21,4 C 3,1 C 49 % 56 % 82 % 1013,7 hPa 0,0 l/m 4,7 km/h (1 Bft) W-SW 247 0 min 0,0 UV-I 7,4 C 21,4 C 0,0 km/h (0 Bft)
05.06.2014 13:50 18,7 C 24,4 C 18,5 C 22,4 C 22,4 C 3,7 C 49 % 56 % 97 % 1013,7 hPa 0,0 l/m 3,7 km/h (1 Bft) NW 315 5 min 0,0 UV-I 7,8 C 22,4 C 6,0 km/h (2 Bft)
05.06.2014 13:55 18,9 C 24,4 C 18,8 C 23,1 C 23,1 C 4,2 C 49 % 57 % 100 % 1013,7 hPa 0,0 l/m 3,9 km/h (1 Bft) S-SW 202 5 min 0,0 UV-I 7,9 C 23,1 C 3,2 km/h (1 Bft)
05.06.2014 14:00 19,1 C 24,4 C 18,9 C 23,1 C 23,1 C 4,0 C 47 % 55 % 100 % 1013,6 hPa 0,0 l/m 4,7 km/h (1 Bft) S-SO 157 5 min 0,0 UV-I 7,5 C 23,1 C 8,0 km/h (2 Bft)
05.06.2014 14:05 19,1 C 24,4 C 18,8 C 22,9 C 22,9 C 3,8 C 48 % 55 % 100 % 1013,6 hPa 0,0 l/m 3,9 km/h (1 Bft) S 180 5 min 0,0 UV-I 7,8 C 22,9 C 4,5 km/h (1 Bft)
05.06.2014 14:10 19,1 C 24,4 C 18,8 C 23,1 C 23,1 C 4,0 C 49 % 54 % 100 % 1013,6 hPa 0,0 l/m 3,1 km/h (1 Bft) SO 135 5 min 0,0 UV-I 8,1 C 23,1 C 1,9 km/h (1 Bft)
05.06.2014 14:15 19,3 C 24,4 C 18,9 C 23,0 C 23,0 C 3,7 C 50 % 56 % 97 % 1013,6 hPa 0,0 l/m 2,9 km/h (1 Bft) N 360 5 min 0,0 UV-I 8,6 C 23,0 C 4,3 km/h (1 Bft)
05.06.2014 14:20 19,2 C 24,4 C 18,8 C 23,0 C 23,0 C 3,8 C 49 % 56 % 100 % 1013,7 hPa 0,0 l/m 1,8 km/h (1 Bft) SW 225 5 min 0,0 UV-I 8,2 C 23,0 C 2,6 km/h (1 Bft)
05.06.2014 14:25 19,3 C 24,4 C 18,8 C 23,1 C 23,1 C 3,8 C 48 % 55 % 100 % 1013,7 hPa 0,0 l/m 2,1 km/h (1 Bft) W-NW 292 5 min 0,0 UV-I 8,0 C 23,1 C 2,9 km/h (1 Bft)
05.06.2014 14:30 19,6 C 24,4 C 18,9 C 23,8 C 23,8 C 4,2 C 48 % 56 % 100 % 1013,7 hPa 0,0 l/m 2,4 km/h (1 Bft) W-SW 247 5 min 0,0 UV-I 8,3 C 23,8 C 8,5 km/h (2 Bft)
05.06.2014 14:35 19,8 C 24,4 C 19,0 C 24,2 C 24,2 C 4,4 C 47 % 55 % 100 % 1013,7 hPa 0,0 l/m 2,7 km/h (1 Bft) W-SW 247 5 min 0,0 UV-I 8,2 C 24,2 C 8,0 km/h (2 Bft)
05.06.2014 14:40 19,9 C 24,4 C 19,0 C 23,9 C 23,9 C 4,0 C 44 % 53 % 100 % 1013,9 hPa 0,0 l/m 3,2 km/h (1 Bft) SO 135 5 min 0,0 UV-I 7,3 C 23,9 C 3,2 km/h (1 Bft)
05.06.2014 14:45 19,6 C 24,4 C 18,9 C 23,3 C 23,3 C 3,7 C 43 % 53 % 97 % 1013,9 hPa 0,0 l/m 4,0 km/h (1 Bft) S-SO 157 5 min 0,0 UV-I 6,7 C 23,3 C 5,1 km/h (1 Bft)
05.06.2014 14:50 19,5 C 24,4 C 18,9 C 23,1 C 23,1 C 3,6 C 44 % 54 % 95 % 1013,9 hPa 0,0 l/m 4,3 km/h (1 Bft) NW 315 5 min 0,0 UV-I 6,9 C 23,1 C 3,7 km/h (1 Bft)
05.06.2014 14:55 19,5 C 24,4 C 18,9 C 23,3 C 23,3 C 3,8 C 45 % 55 % 100 % 1013,9 hPa 0,0 l/m 3,9 km/h (1 Bft) S 180 5 min 0,0 UV-I 7,2 C 23,3 C 3,5 km/h (1 Bft)
05.06.2014 15:00 20,0 C 24,4 C 19,2 C 24,0 C 24,0 C 4,0 C 47 % 56 % 100 % 1013,8 hPa 0,0 l/m 2,9 km/h (1 Bft) W-NW 292 5 min 0,0 UV-I 8,3 C 24,0 C 6,0 km/h (2 Bft)
05.06.2014 15:05 20,3 C 24,4 C 19,3 C 24,8 C 24,8 C 4,5 C 45 % 53 % 100 % 1013,8 hPa 0,0 l/m 2,6 km/h (1 Bft) S-SW 202 5 min 0,0 UV-I 8,0 C 24,8 C 2,3 km/h (1 Bft)
05.06.2014 15:10 20,6 C 24,4 C 19,5 C 25,5 C 25,5 C 4,9 C 46 % 54 % 100 % 1013,8 hPa 0,0 l/m 1,6 km/h (1 Bft) S-SO 157 5 min 0,0 UV-I 8,6 C 25,5 C 2,7 km/h (1 Bft)
05.06.2014 15:15 20,8 C 24,4 C 19,5 C 26,2 C 26,2 C 5,4 C 45 % 55 % 100 % 1013,8 hPa 0,0 l/m 1,9 km/h (1 Bft) S-SO 157 5 min 0,0 UV-I 8,4 C 26,2 C 6,6 km/h (2 Bft)
05.06.2014 15:20 20,8 C 24,4 C 19,5 C 25,6 C 25,6 C 4,8 C 42 % 53 % 100 % 1013,8 hPa 0,0 l/m 4,5 km/h (1 Bft) W 270 5 min 0,0 UV-I 7,4 C 25,6 C 9,7 km/h (2 Bft)
05.06.2014 15:25 20,3 C 24,4 C 19,3 C 24,3 C 24,3 C 4,0 C 42 % 51 % 100 % 1013,8 hPa 0,0 l/m 6,4 km/h (2 Bft) SW 225 5 min 0,0 UV-I 7,0 C 24,3 C 8,5 km/h (2 Bft)
05.06.2014 15:30 19,7 C 24,4 C 19,1 C 22,9 C 22,9 C 3,2 C 43 % 52 % 84 % 1013,8 hPa 0,0 l/m 6,0 km/h (2 Bft) S-SW 202 0 min 0,0 UV-I 6,8 C 22,9 C 8,9 km/h (2 Bft)
05.06.2014 15:35 19,7 C 24,4 C 19,2 C 22,9 C 22,9 C 3,2 C 43 % 53 % 84 % 1013,8 hPa 0,0 l/m 6,0 km/h (2 Bft) S 180 0 min 0,0 UV-I 6,8 C 22,9 C 7,9 km/h (2 Bft)
05.06.2014 15:40 20,0 C 24,4 C 19,5 C 23,5 C 23,5 C 3,5 C 42 % 51 % 92 % 1014,1 hPa 0,0 l/m 6,9 km/h (2 Bft) S-SW 202 5 min 0,0 UV-I 6,7 C 23,5 C 7,7 km/h (2 Bft)
05.06.2014 15:45 19,9 C 24,4 C 19,3 C 23,1 C 23,1 C 3,2 C 43 % 51 % 84 % 1014,1 hPa 0,0 l/m 6,4 km/h (2 Bft) O-NO 67 0 min 0,0 UV-I 6,9 C 23,1 C 5,8 km/h (2 Bft)
05.06.2014 15:50 19,9 C 24,4 C 19,2 C 23,0 C 23,0 C 3,1 C 42 % 50 % 82 % 1014,1 hPa 0,0 l/m 5,8 km/h (2 Bft) SW 225 0 min 0,0 UV-I 6,6 C 23,0 C 4,3 km/h (1 Bft)
05.06.2014 15:55 19,9 C 24,5 C 19,2 C 23,2 C 23,2 C 3,3 C 44 % 52 % 87 % 1014,1 hPa 0,0 l/m 5,1 km/h (1 Bft) S-SW 202 5 min 0,0 UV-I 7,3 C 23,2 C 0,0 km/h (0 Bft)
05.06.2014 16:00 19,9 C 24,5 C 19,1 C 22,8 C 22,8 C 2,9 C 43 % 51 % 76 % 1014,4 hPa 0,0 l/m 4,8 km/h (1 Bft) W 270 0 min 0,0 UV-I 6,9 C 22,8 C 12,2 km/h (2 Bft)
05.06.2014 16:05 19,5 C 24,5 C 18,9 C 22,1 C 22,1 C 2,6 C 44 % 52 % 68 % 1014,4 hPa 0,0 l/m 5,1 km/h (1 Bft) W 270 0 min 0,0 UV-I 6,9 C 22,1 C 8,5 km/h (2 Bft)
05.06.2014 16:10 19,4 C 24,5 C 19,1 C 21,9 C 21,9 C 2,5 C 44 % 52 % 66 % 1014,4 hPa 0,0 l/m 6,6 km/h (2 Bft) W-SW 247 0 min 0,0 UV-I 6,8 C 21,9 C 7,1 km/h (2 Bft)
05.06.2014 16:15 19,3 C 24,5 C 18,8 C 21,5 C 21,5 C 2,2 C 46 % 53 % 58 % 1014,4 hPa 0,0 l/m 5,6 km/h (1 Bft) SW 225 0 min 0,0 UV-I 7,4 C 21,5 C 3,5 km/h (1 Bft)
05.06.2014 16:20 19,2 C 24,5 C 18,7 C 21,3 C 21,3 C 2,1 C 45 % 54 % 55 % 1014,7 hPa 0,0 l/m 2,9 km/h (1 Bft) S-SW 202 0 min 0,0 UV-I 7,0 C 21,3 C 2,1 km/h (1 Bft)
05.06.2014 16:25 19,3 C 24,5 C 18,9 C 21,7 C 21,7 C 2,4 C 45 % 54 % 63 % 1014,7 hPa 0,0 l/m 2,3 km/h (1 Bft) W-SW 247 0 min 0,0 UV-I 7,1 C 21,7 C 9,7 km/h (2 Bft)
05.06.2014 16:30 19,5 C 24,5 C 18,8 C 22,0 C 22,0 C 2,5 C 44 % 53 % 66 % 1014,7 hPa 0,0 l/m 3,9 km/h (1 Bft) S-SO 157 0 min 0,0 UV-I 6,9 C 22,0 C 3,5 km/h (1 Bft)
05.06.2014 16:35 19,3 C 24,5 C 18,9 C 21,7 C 21,7 C 2,4 C 44 % 52 % 63 % 1014,7 hPa 0,0 l/m 5,0 km/h (1 Bft) W-SW 247 0 min 0,0 UV-I 6,7 C 21,7 C 6,4 km/h (2 Bft)
05.06.2014 16:40 19,1 C 24,5 C 19,0 C 21,7 C 21,7 C 2,6 C 45 % 52 % 68 % 1014,9 hPa 0,0 l/m 6,8 km/h (2 Bft) SW 225 0 min 0,0 UV-I 6,9 C 21,7 C 9,8 km/h (2 Bft)
05.06.2014 16:45 19,2 C 24,5 C 19,3 C 22,4 C 22,4 C 3,2 C 45 % 53 % 84 % 1014,9 hPa 0,0 l/m 7,1 km/h (2 Bft) SW 225 0 min 0,0 UV-I 7,0 C 22,4 C 6,8 km/h (2 Bft)
05.06.2014 16:50 19,4 C 24,5 C 19,3 C 23,3 C 23,3 C 3,9 C 46 % 53 % 100 % 1014,9 hPa 0,0 l/m 5,0 km/h (1 Bft) S 180 5 min 0,0 UV-I 7,5 C 23,3 C 8,5 km/h (2 Bft)
05.06.2014 16:55 19,4 C 24,5 C 19,2 C 22,9 C 22,9 C 3,5 C 45 % 53 % 92 % 1014,9 hPa 0,0 l/m 5,1 km/h (1 Bft) W-SW 247 5 min 0,0 UV-I 7,2 C 22,9 C 14,3 km/h (3 Bft)
05.06.2014 17:00 19,3 C 24,5 C 18,8 C 21,9 C 21,9 C 2,6 C 45 % 53 % 68 % 1015,1 hPa 0,0 l/m 5,3 km/h (1 Bft) O-SO 112 0 min 0,0 UV-I 7,1 C 21,9 C 2,7 km/h (1 Bft)
05.06.2014 17:05 19,2 C 24,5 C 18,8 C 21,7 C 21,7 C 2,5 C 45 % 53 % 66 % 1015,1 hPa 0,0 l/m 4,8 km/h (1 Bft) S 180 0 min 0,0 UV-I 7,0 C 21,7 C 5,5 km/h (1 Bft)
05.06.2014 17:10 19,2 C 24,5 C 19,0 C 22,2 C 22,2 C 3,0 C 46 % 54 % 79 % 1015,1 hPa 0,0 l/m 3,9 km/h (1 Bft) S-SW 202 0 min 0,0 UV-I 7,3 C 22,2 C 1,9 km/h (1 Bft)
05.06.2014 17:15 19,4 C 24,5 C 19,3 C 23,1 C 23,1 C 3,7 C 45 % 53 % 97 % 1015,1 hPa 0,0 l/m 3,9 km/h (1 Bft) S 180 5 min 0,0 UV-I 7,2 C 23,1 C 12,4 km/h (3 Bft)
05.06.2014 17:20 19,5 C 24,5 C 19,5 C 23,9 C 23,9 C 4,4 C 46 % 53 % 100 % 1014,9 hPa 0,0 l/m 4,8 km/h (1 Bft) S-SW 202 5 min 0,0 UV-I 7,6 C 23,9 C 3,7 km/h (1 Bft)
05.06.2014 17:25 19,4 C 24,5 C 19,4 C 23,7 C 23,7 C 4,3 C 45 % 52 % 100 % 1014,9 hPa 0,0 l/m 6,1 km/h (2 Bft) SW 225 5 min 0,0 UV-I 7,2 C 23,7 C 4,8 km/h (1 Bft)
05.06.2014 17:30 19,4 C 24,5 C 19,2 C 23,3 C 23,3 C 3,9 C 45 % 52 % 100 % 1014,9 hPa 0,0 l/m 5,1 km/h (1 Bft) S 180 5 min 0,0 UV-I 7,2 C 23,3 C 6,1 km/h (2 Bft)
05.06.2014 17:35 19,3 C 24,5 C 19,1 C 23,2 C 23,2 C 3,9 C 44 % 53 % 100 % 1014,9 hPa 0,0 l/m 4,2 km/h (1 Bft) S 180 5 min 0,0 UV-I 6,7 C 23,2 C 10,0 km/h (2 Bft)
05.06.2014 17:40 19,3 C 24,5 C 19,1 C 22,6 C 22,6 C 3,3 C 45 % 52 % 87 % 1014,8 hPa 0,0 l/m 4,7 km/h (1 Bft) N-NW 337 5 min 0,0 UV-I 7,1 C 22,6 C 0,0 km/h (0 Bft)
05.06.2014 17:45 19,3 C 24,6 C 19,0 C 22,6 C 22,6 C 3,3 C 45 % 52 % 87 % 1014,8 hPa 0,0 l/m 4,2 km/h (1 Bft) W-SW 247 5 min 0,0 UV-I 7,1 C 22,6 C 5,8 km/h (2 Bft)
05.06.2014 17:50 19,5 C 24,6 C 19,3 C 23,4 C 23,4 C 3,9 C 46 % 53 % 100 % 1014,8 hPa 0,0 l/m 3,5 km/h (1 Bft) O-SO 112 5 min 0,0 UV-I 7,6 C 23,4 C 4,3 km/h (1 Bft)
05.06.2014 17:55 19,5 C 24,6 C 19,5 C 23,9 C 23,9 C 4,4 C 46 % 53 % 100 % 1014,8 hPa 0,0 l/m 3,9 km/h (1 Bft) W-SW 247 5 min 0,0 UV-I 7,6 C 23,9 C 6,1 km/h (2 Bft)
05.06.2014 18:00 19,5 C 24,6 C 19,6 C 24,7 C 24,7 C 5,2 C 46 % 52 % 100 % 1015,1 hPa 0,0 l/m 3,9 km/h (1 Bft) SW 225 5 min 0,0 UV-I 7,6 C 24,7 C 4,5 km/h (1 Bft)
05.06.2014 18:05 19,7 C 24,6 C 19,5 C 25,3 C 25,3 C 5,6 C 45 % 53 % 100 % 1015,1 hPa 0,0 l/m 3,9 km/h (1 Bft) N-NW 337 5 min 0,0 UV-I 7,4 C 25,3 C 5,8 km/h (2 Bft)
05.06.2014 18:10 19,6 C 24,6 C 19,4 C 25,2 C 25,2 C 5,6 C 44 % 51 % 100 % 1015,1 hPa 0,0 l/m 4,8 km/h (1 Bft) S 180 5 min 0,0 UV-I 7,0 C 25,2 C 11,1 km/h (2 Bft)
05.06.2014 18:15 19,4 C 24,6 C 19,5 C 24,7 C 24,7 C 5,3 C 44 % 51 % 100 % 1015,1 hPa 0,0 l/m 5,5 km/h (1 Bft) S-SW 202 5 min 0,0 UV-I 6,8 C 24,7 C 3,9 km/h (1 Bft)
05.06.2014 18:20 19,5 C 24,6 C 19,5 C 24,9 C 24,9 C 5,4 C 45 % 51 % 100 % 1014,8 hPa 0,0 l/m 4,0 km/h (1 Bft) S-SW 202 5 min 0,0 UV-I 7,2 C 24,9 C 4,7 km/h (1 Bft)
05.06.2014 18:25 19,4 C 24,6 C 19,3 C 24,7 C 24,7 C 5,3 C 44 % 51 % 100 % 1014,8 hPa 0,0 l/m 4,3 km/h (1 Bft) S 180 5 min 0,0 UV-I 6,8 C 24,7 C 4,5 km/h (1 Bft)
05.06.2014 18:30 19,4 C 24,6 C 19,3 C 24,8 C 24,8 C 5,4 C 45 % 52 % 100 % 1014,8 hPa 0,0 l/m 4,3 km/h (1 Bft) W 270 5 min 0,0 UV-I 7,2 C 24,8 C 4,5 km/h (1 Bft)
05.06.2014 18:35 19,5 C 24,6 C 19,3 C 25,0 C 25,0 C 5,5 C 45 % 52 % 100 % 1014,8 hPa 0,0 l/m 3,4 km/h (1 Bft) N-NW 337 5 min 0,0 UV-I 7,2 C 25,0 C 2,4 km/h (1 Bft)
05.06.2014 18:40 19,5 C 24,6 C 19,2 C 25,4 C 25,4 C 5,9 C 45 % 52 % 100 % 1014,8 hPa 0,0 l/m 2,4 km/h (1 Bft) SW 225 5 min 0,0 UV-I 7,2 C 25,4 C 5,6 km/h (1 Bft)
05.06.2014 18:45 19,5 C 24,6 C 19,3 C 25,5 C 25,5 C 6,0 C 46 % 52 % 100 % 1014,8 hPa 0,0 l/m 1,4 km/h (1 Bft) W-SW 247 5 min 0,0 UV-I 7,6 C 25,5 C 2,3 km/h (1 Bft)
05.06.2014 18:50 19,6 C 24,6 C 19,1 C 25,6 C 25,6 C 6,0 C 45 % 53 % 100 % 1014,8 hPa 0,0 l/m 2,4 km/h (1 Bft) S-SW 202 5 min 0,0 UV-I 7,3 C 25,6 C 1,8 km/h (1 Bft)
05.06.2014 18:55 19,9 C 24,6 C 19,1 C 25,6 C 25,6 C 5,7 C 45 % 54 % 100 % 1014,8 hPa 0,0 l/m 2,4 km/h (1 Bft) W-SW 247 5 min 0,0 UV-I 7,6 C 25,6 C 2,6 km/h (1 Bft)
05.06.2014 19:00 19,9 C 24,6 C 19,1 C 25,3 C 25,3 C 5,4 C 44 % 54 % 100 % 1014,9 hPa 0,0 l/m 2,6 km/h (1 Bft) S-SO 157 5 min 0,0 UV-I 7,3 C 25,3 C 6,1 km/h (2 Bft)
05.06.2014 19:05 20,0 C 24,6 C 19,0 C 25,2 C 25,2 C 5,2 C 44 % 54 % 100 % 1014,9 hPa 0,0 l/m 2,6 km/h (1 Bft) O-NO 67 5 min 0,0 UV-I 7,4 C 25,2 C 2,4 km/h (1 Bft)
05.06.2014 19:10 19,9 C 24,6 C 19,0 C 24,9 C 24,9 C 5,0 C 44 % 54 % 100 % 1014,9 hPa 0,0 l/m 3,1 km/h (1 Bft) SW 225 5 min 0,0 UV-I 7,3 C 24,9 C 6,9 km/h (2 Bft)
05.06.2014 19:15 19,9 C 24,6 C 19,1 C 24,6 C 24,6 C 4,7 C 45 % 54 % 100 % 1014,9 hPa 0,0 l/m 3,5 km/h (1 Bft) W-SW 247 5 min 0,0 UV-I 7,6 C 24,6 C 6,8 km/h (2 Bft)
05.06.2014 19:20 19,7 C 24,6 C 19,1 C 24,3 C 24,3 C 4,6 C 45 % 55 % 100 % 1015,1 hPa 0,0 l/m 3,1 km/h (1 Bft) W-SW 247 5 min 0,0 UV-I 7,4 C 24,3 C 4,3 km/h (1 Bft)
05.06.2014 19:25 19,7 C 24,6 C 19,1 C 24,2 C 24,2 C 4,5 C 46 % 56 % 100 % 1015,1 hPa 0,0 l/m 2,4 km/h (1 Bft) S-SW 202 5 min 0,0 UV-I 7,8 C 24,2 C 5,0 km/h (1 Bft)
05.06.2014 19:30 19,7 C 24,6 C 18,9 C 24,5 C 24,5 C 4,8 C 46 % 56 % 100 % 1015,1 hPa 0,0 l/m 1,4 km/h (1 Bft) S 180 5 min 0,0 UV-I 7,8 C 24,5 C 0,0 km/h (0 Bft)
05.06.2014 19:35 19,8 C 24,6 C 18,9 C 24,5 C 24,5 C 4,7 C 46 % 56 % 100 % 1015,1 hPa 0,0 l/m 1,1 km/h (1 Bft) W-SW 247 5 min 0,0 UV-I 7,8 C 24,5 C 0,0 km/h (0 Bft)
05.06.2014 19:40 20,1 C 24,6 C 18,8 C 24,3 C 24,3 C 4,2 C 46 % 57 % 100 % 1015,1 hPa 0,0 l/m 1,6 km/h (1 Bft) S-SO 157 5 min 0,0 UV-I 8,1 C 24,3 C 2,3 km/h (1 Bft)
05.06.2014 19:45 20,4 C 24,6 C 18,7 C 24,1 C 24,1 C 3,7 C 45 % 57 % 97 % 1015,1 hPa 0,0 l/m 1,6 km/h (1 Bft) NW 315 5 min 0,0 UV-I 8,1 C 24,1 C 2,6 km/h (1 Bft)
05.06.2014 19:50 20,4 C 24,6 C 18,6 C 23,6 C 23,6 C 3,2 C 45 % 57 % 84 % 1015,1 hPa 0,0 l/m 2,1 km/h (1 Bft) S-SO 157 5 min 0,0 UV-I 8,1 C 23,6 C 0,0 km/h (0 Bft)
05.06.2014 19:55 20,3 C 24,6 C 18,4 C 23,1 C 23,1 C 2,8 C 45 % 56 % 74 % 1015,1 hPa 0,0 l/m 1,4 km/h (1 Bft) S-SW 202 5 min 0,0 UV-I 8,0 C 23,1 C 1,8 km/h (1 Bft)
05.06.2014 20:00 19,9 C 24,6 C 17,8 C 21,4 C 21,4 C 1,5 C 46 % 57 % 39 % 1015,1 hPa 0,0 l/m 0,2 km/h (0 Bft) O-NO 67 0 min 0,0 UV-I 7,9 C 21,4 C 0,0 km/h (0 Bft)
05.06.2014 20:05 19,6 C 24,6 C 17,6 C 20,0 C 20,0 C 0,4 C 46 % 57 % 11 % 1015,1 hPa 0,0 l/m 0,2 km/h (0 Bft) W 270 0 min 0,0 UV-I 7,7 C 20,0 C 0,0 km/h (0 Bft)
05.06.2014 20:10 19,2 C 24,6 C 17,4 C 19,0 C 18,7 C 0,0 C 48 % 59 % 0 % 1015,1 hPa 0,0 l/m 0,0 km/h (0 Bft) N-NW 337 0 min 0,0 UV-I 7,9 C 18,7 C 0,0 km/h (0 Bft)
05.06.2014 20:15 19,0 C 24,6 C 17,2 C 18,7 C 18,2 C 0,0 C 48 % 59 % 0 % 1015,1 hPa 0,0 l/m 0,0 km/h (0 Bft) N 360 0 min 0,0 UV-I 7,7 C 18,2 C 0,0 km/h (0 Bft)
05.06.2014 20:20 18,6 C 24,6 C 17,1 C 18,2 C 17,5 C 0,0 C 49 % 62 % 0 % 1015,4 hPa 0,0 l/m 0,0 km/h (0 Bft) N-NO 22 0 min 0,0 UV-I 7,7 C 17,5 C 0,0 km/h (0 Bft)
05.06.2014 20:25 18,3 C 24,6 C 16,9 C 17,9 C 17,1 C 0,0 C 50 % 63 % 0 % 1015,4 hPa 0,0 l/m 0,0 km/h (0 Bft) NW 315 0 min 0,0 UV-I 7,7 C 17,1 C 0,0 km/h (0 Bft)
05.06.2014 20:30 18,0 C 24,6 C 16,6 C 17,5 C 16,6 C 0,0 C 51 % 63 % 0 % 1015,4 hPa 0,0 l/m 0,0 km/h (0 Bft) SW 225 0 min 0,0 UV-I 7,7 C 16,6 C 0,0 km/h (0 Bft)
05.06.2014 20:35 17,9 C 24,6 C 16,4 C 17,4 C 16,3 C 0,0 C 52 % 64 % 0 % 1015,4 hPa 0,0 l/m 0,0 km/h (0 Bft) O-SO 112 0 min 0,0 UV-I 7,9 C 16,3 C 0,0 km/h (0 Bft)
05.06.2014 20:40 17,5 C 24,6 C 16,3 C 16,9 C 15,8 C 0,0 C 53 % 65 % 0 % 1015,4 hPa 0,0 l/m 0,0 km/h (0 Bft) O 90 0 min 0,0 UV-I 7,8 C 15,8 C 0,0 km/h (0 Bft)
05.06.2014 20:45 17,3 C 24,6 C 16,1 C 16,7 C 15,5 C 0,0 C 54 % 66 % 0 % 1015,4 hPa 0,0 l/m 0,0 km/h (0 Bft) O 90 0 min 0,0 UV-I 7,9 C 15,5 C 0,0 km/h (0 Bft)
05.06.2014 20:50 16,9 C 24,6 C 15,7 C 16,3 C 15,1 C 0,0 C 55 % 67 % 0 % 1015,4 hPa 0,0 l/m 0,0 km/h (0 Bft) O-NO 67 0 min 0,0 UV-I 7,8 C 15,1 C 0,0 km/h (0 Bft)
05.06.2014 20:55 16,6 C 24,6 C 15,5 C 16,0 C 14,9 C 0,0 C 56 % 67 % 0 % 1015,4 hPa 0,0 l/m 0,0 km/h (0 Bft) O-NO 67 0 min 0,0 UV-I 7,8 C 14,9 C 0,0 km/h (0 Bft)
05.06.2014 21:00 16,3 C 24,6 C 15,3 C 15,6 C 14,3 C 0,0 C 57 % 69 % 0 % 1015,6 hPa 0,0 l/m 0,0 km/h (0 Bft) O-NO 67 0 min 0,0 UV-I 7,8 C 14,3 C 0,0 km/h (0 Bft)
05.06.2014 21:05 16,1 C 24,6 C 15,1 C 15,4 C 14,1 C 0,0 C 58 % 68 % 0 % 1015,6 hPa 0,0 l/m 0,0 km/h (0 Bft) O-NO 67 0 min 0,0 UV-I 7,8 C 14,1 C 0,0 km/h (0 Bft)
05.06.2014 21:10 15,7 C 24,6 C 14,8 C 15,0 C 13,7 C 0,0 C 59 % 69 % 0 % 1015,6 hPa 0,0 l/m 0,0 km/h (0 Bft) O-NO 67 0 min 0,0 UV-I 7,7 C 13,7 C 0,0 km/h (0 Bft)
05.06.2014 21:15 15,5 C 24,6 C 14,7 C 14,8 C 13,4 C 0,0 C 60 % 69 % 0 % 1015,6 hPa 0,0 l/m 0,0 km/h (0 Bft) O-NO 67 0 min 0,0 UV-I 7,8 C 13,4 C 0,0 km/h (0 Bft)
05.06.2014 21:20 15,2 C 24,6 C 14,7 C 14,5 C 13,0 C 0,0 C 61 % 70 % 0 % 1015,6 hPa 0,0 l/m 0,0 km/h (0 Bft) S 180 0 min 0,0 UV-I 7,7 C 13,0 C 0,0 km/h (0 Bft)
05.06.2014 21:25 15,1 C 24,6 C 14,4 C 14,3 C 12,7 C 0,0 C 64 % 71 % 0 % 1015,6 hPa 0,0 l/m 0,0 km/h (0 Bft) S 180 0 min 0,0 UV-I 8,3 C 12,7 C 0,0 km/h (0 Bft)
05.06.2014 21:30 14,8 C 24,6 C 14,2 C 14,0 C 12,4 C 0,0 C 65 % 73 % 0 % 1015,6 hPa 0,0 l/m 0,0 km/h (0 Bft) S 180 0 min 0,0 UV-I 8,3 C 12,4 C 0,0 km/h (0 Bft)
05.06.2014 21:35 14,7 C 24,6 C 14,1 C 13,9 C 12,2 C 0,0 C 66 % 73 % 0 % 1015,6 hPa 0,0 l/m 0,0 km/h (0 Bft) S 180 0 min 0,0 UV-I 8,4 C 12,2 C 0,0 km/h (0 Bft)
05.06.2014 21:40 14,3 C 24,6 C 13,9 C 13,5 C 11,9 C 0,0 C 67 % 74 % 0 % 1015,8 hPa 0,0 l/m 0,0 km/h (0 Bft) S 180 0 min 0,0 UV-I 8,3 C 11,9 C 0,0 km/h (0 Bft)
05.06.2014 21:45 14,0 C 24,6 C 13,8 C 13,3 C 11,9 C 0,0 C 68 % 74 % 0 % 1015,8 hPa 0,0 l/m 0,0 km/h (0 Bft) S 180 0 min 0,0 UV-I 8,2 C 11,9 C 0,0 km/h (0 Bft)
05.06.2014 21:50 13,8 C 24,6 C 13,6 C 13,1 C 11,7 C 0,0 C 69 % 75 % 0 % 1015,8 hPa 0,0 l/m 0,0 km/h (0 Bft) S 180 0 min 0,0 UV-I 8,2 C 11,7 C 0,0 km/h (0 Bft)
05.06.2014 21:55 13,6 C 24,6 C 13,5 C 12,9 C 11,5 C 0,0 C 70 % 75 % 0 % 1015,8 hPa 0,0 l/m 0,0 km/h (0 Bft) S 180 0 min 0,0 UV-I 8,2 C 11,5 C 0,0 km/h (0 Bft)
05.06.2014 22:00 13,3 C 24,6 C 13,2 C 12,6 C 11,3 C 0,0 C 70 % 76 % 0 % 1016,2 hPa 0,0 l/m 0,0 km/h (0 Bft) O 90 0 min 0,0 UV-I 7,9 C 11,3 C 0,0 km/h (0 Bft)
05.06.2014 22:05 13,2 C 24,6 C 13,1 C 12,5 C 11,1 C 0,0 C 71 % 76 % 0 % 1016,2 hPa 0,0 l/m 0,0 km/h (0 Bft) O 90 0 min 0,0 UV-I 8,1 C 11,1 C 0,0 km/h (0 Bft)
05.06.2014 22:10 12,9 C 24,6 C 13,0 C 12,2 C 10,9 C 0,0 C 72 % 76 % 0 % 1016,2 hPa 0,0 l/m 0,0 km/h (0 Bft) O 90 0 min 0,0 UV-I 8,0 C 10,9 C 0,0 km/h (0 Bft)
05.06.2014 22:15 12,8 C 24,6 C 12,8 C 12,1 C 10,7 C 0,0 C 73 % 77 % 0 % 1016,2 hPa 0,0 l/m 0,0 km/h (0 Bft) O 90 0 min 0,0 UV-I 8,1 C 10,7 C 0,0 km/h (0 Bft)
05.06.2014 22:20 12,5 C 24,6 C 12,7 C 11,9 C 10,6 C 0,0 C 73 % 77 % 0 % 1016,3 hPa 0,0 l/m 0,0 km/h (0 Bft) O 90 0 min 0,0 UV-I 7,8 C 10,6 C 0,0 km/h (0 Bft)
05.06.2014 22:25 12,4 C 24,6 C 12,5 C 11,8 C 10,5 C 0,0 C 74 % 77 % 0 % 1016,3 hPa 0,0 l/m 0,0 km/h (0 Bft) O 90 0 min 0,0 UV-I 7,9 C 10,5 C 0,0 km/h (0 Bft)
05.06.2014 22:30 12,1 C 24,6 C 12,4 C 11,5 C 10,2 C 0,0 C 74 % 78 % 0 % 1016,3 hPa 0,0 l/m 0,0 km/h (0 Bft) O 90 0 min 0,0 UV-I 7,6 C 10,2 C 0,0 km/h (0 Bft)
05.06.2014 22:35 12,0 C 24,6 C 12,3 C 11,3 C 9,9 C 0,0 C 74 % 78 % 0 % 1016,3 hPa 0,0 l/m 0,0 km/h (0 Bft) S 180 0 min 0,0 UV-I 7,5 C 9,9 C 0,0 km/h (0 Bft)
05.06.2014 22:40 11,9 C 24,6 C 12,1 C 11,2 C 9,7 C 0,0 C 75 % 79 % 0 % 1016,5 hPa 0,0 l/m 0,0 km/h (0 Bft) S 180 0 min 0,0 UV-I 7,6 C 9,7 C 0,0 km/h (0 Bft)
05.06.2014 22:45 11,7 C 24,6 C 11,9 C 11,0 C 9,6 C 0,0 C 76 % 79 % 0 % 1016,5 hPa 0,0 l/m 0,0 km/h (0 Bft) S 180 0 min 0,0 UV-I 7,6 C 9,6 C 0,0 km/h (0 Bft)
05.06.2014 22:50 11,5 C 24,6 C 11,9 C 10,8 C 9,4 C 0,0 C 77 % 80 % 0 % 1016,5 hPa 0,0 l/m 0,0 km/h (0 Bft) S 180 0 min 0,0 UV-I 7,6 C 9,4 C 0,0 km/h (0 Bft)
05.06.2014 22:55 11,5 C 24,6 C 11,6 C 10,8 C 9,4 C 0,0 C 77 % 80 % 0 % 1016,5 hPa 0,0 l/m 0,0 km/h (0 Bft) S 180 0 min 0,0 UV-I 7,6 C 9,4 C 0,0 km/h (0 Bft)
05.06.2014 23:00 11,2 C 24,6 C 11,5 C 10,5 C 9,1 C 0,0 C 78 % 80 % 0 % 1016,6 hPa 0,0 l/m 0,0 km/h (0 Bft) W 270 0 min 0,0 UV-I 7,5 C 9,1 C 0,0 km/h (0 Bft)
05.06.2014 23:05 11,1 C 24,8 C 11,5 C 10,4 C 9,0 C 0,0 C 78 % 80 % 0 % 1016,6 hPa 0,0 l/m 0,0 km/h (0 Bft) W 270 0 min 0,0 UV-I 7,4 C 9,0 C 0,0 km/h (0 Bft)
05.06.2014 23:10 11,0 C 24,8 C 11,3 C 10,3 C 8,9 C 0,0 C 79 % 81 % 0 % 1016,6 hPa 0,0 l/m 0,0 km/h (0 Bft) W 270 0 min 0,0 UV-I 7,5 C 8,9 C 0,0 km/h (0 Bft)
05.06.2014 23:15 10,8 C 24,8 C 11,3 C 10,2 C 8,9 C 0,0 C 79 % 81 % 0 % 1016,6 hPa 0,0 l/m 0,0 km/h (0 Bft) W 270 0 min 0,0 UV-I 7,3 C 8,9 C 0,0 km/h (0 Bft)
05.06.2014 23:20 10,7 C 24,8 C 11,3 C 10,1 C 8,8 C 0,0 C 80 % 81 % 0 % 1016,9 hPa 0,0 l/m 0,0 km/h (0 Bft) W-NW 292 0 min 0,0 UV-I 7,4 C 8,8 C 0,0 km/h (0 Bft)
05.06.2014 23:25 10,7 C 24,8 C 11,1 C 10,0 C 8,7 C 0,0 C 80 % 81 % 0 % 1016,9 hPa 0,0 l/m 0,0 km/h (0 Bft) W 270 0 min 0,0 UV-I 7,4 C 8,7 C 0,0 km/h (0 Bft)
05.06.2014 23:30 10,4 C 24,7 C 10,9 C 9,8 C 8,5 C 0,0 C 80 % 81 % 0 % 1016,9 hPa 0,0 l/m 0,0 km/h (0 Bft) W-SW 247 0 min 0,0 UV-I 7,1 C 8,5 C 0,0 km/h (0 Bft)
05.06.2014 23:35 10,3 C 24,7 C 10,9 C 9,7 C 8,4 C 0,0 C 80 % 81 % 0 % 1016,9 hPa 0,0 l/m 0,0 km/h (0 Bft) SW 225 0 min 0,0 UV-I 7,0 C 8,4 C 0,0 km/h (0 Bft)
05.06.2014 23:40 10,1 C 24,7 C 10,7 C 9,4 C 8,1 C 0,0 C 81 % 82 % 0 % 1016,9 hPa 0,0 l/m 0,0 km/h (0 Bft) SW 225 0 min 0,0 UV-I 7,0 C 8,1 C 0,0 km/h (0 Bft)
05.06.2014 23:45 10,0 C 24,7 C 10,6 C 9,4 C 8,1 C 0,0 C 81 % 82 % 0 % 1016,9 hPa 0,0 l/m 0,0 km/h (0 Bft) S-SW 202 0 min 0,0 UV-I 6,9 C 8,1 C 0,0 km/h (0 Bft)
05.06.2014 23:50 9,9 C 24,7 C 10,5 C 9,2 C 7,9 C 0,0 C 81 % 82 % 0 % 1016,9 hPa 0,0 l/m 0,0 km/h (0 Bft) W-SW 247 0 min 0,0 UV-I 6,8 C 7,9 C 0,0 km/h (0 Bft)
05.06.2014 23:55 9,9 C 24,7 C 10,3 C 9,2 C 7,9 C 0,0 C 81 % 82 % 0 % 1016,9 hPa 0,0 l/m 0,0 km/h (0 Bft) W-SW 247 0 min 0,0 UV-I 6,8 C 7,9 C 0,0 km/h (0 Bft)
_ Min-Zeit 23:50 13:35 23:55 23:50 23:50 00:15 15:20 15:50 00:00 00:00 - 02:40 - - - 00:00 15:50 23:50 00:10
Minimum _ 9,9 C 24,3 C 10,3 C 9,2 C 7,9 C 0,0 C 42 % 50 % 0 % 1008,0 hPa - 0,0 km/h (0 Bft) - - - 0,0 UV-I 6,6 C 7,9 C 0,0 km/h (0 Bft)
_ Max-Zeit 15:15 00:00 18:00 15:15 15:15 08:15 04:50 03:00 08:00 23:20 00:00 09:45 - - 08:26 00:00 08:05 15:15 11:20
Maximum _ 20,8 C 24,9 C 19,6 C 26,2 C 26,2 C 6,8 C 84 % 84 % 100 % 1016,9 hPa 0,0 l/m 8,7 km/h
W-SW (2 Bft)
- - 6 min 0,0 UV-I 12,5 C 26,2 C 22,7 km/h
SW (4 Bft)
Durchschnitt _ 16,4 C 24,6 C 16,1 C 18,2 C 18,0 C 1,9 C 66 % 70 % 44 % 1012,2 hPa #0,0 l/m 2,6 km/h (1 Bft) S - #7:50 h 0,0 UV-I 9,6 C 18,0 C 3,9 km/h (1 Bft)
2014 www.wetterstation-wechselburg.de